createdAt,value
2023-02-27T00:02:02.910Z,-2.90
2023-02-27T00:04:29.878Z,-2.91
2023-02-27T00:06:56.832Z,-2.93
2023-02-27T00:09:23.939Z,-2.95
2023-02-27T00:11:51.007Z,-2.97
2023-02-27T00:14:18.270Z,-2.99
2023-02-27T00:16:45.247Z,-2.99
2023-02-27T00:19:12.792Z,-2.99
2023-02-27T00:21:39.778Z,-3.02
2023-02-27T00:24:07.180Z,-2.99
2023-02-27T00:26:34.162Z,-3.03
2023-02-27T00:29:01.134Z,-3.02
2023-02-27T00:31:28.522Z,-3.02
2023-02-27T00:33:55.740Z,-2.98
2023-02-27T00:36:22.913Z,-2.92
2023-02-27T00:38:49.903Z,-2.89
2023-02-27T00:41:18.267Z,-2.83
2023-02-27T00:43:45.563Z,-2.80
2023-02-27T00:46:12.473Z,-2.76
2023-02-27T00:48:39.485Z,-2.74
2023-02-27T00:51:08.693Z,-2.72
2023-02-27T00:53:35.736Z,-2.69
2023-02-27T00:56:02.756Z,-2.65
2023-02-27T00:58:29.830Z,-2.65
2023-02-27T01:00:59.352Z,-2.62
2023-02-27T01:03:28.419Z,-2.58
2023-02-27T01:05:55.385Z,-2.55
2023-02-27T01:08:22.430Z,-2.51
2023-02-27T01:10:49.381Z,-2.45
2023-02-27T01:13:16.427Z,-2.43
2023-02-27T01:15:43.419Z,-2.39
2023-02-27T01:18:10.462Z,-2.35
2023-02-27T01:20:37.479Z,-2.33
2023-02-27T01:23:04.671Z,-2.30
2023-02-27T01:25:31.684Z,-2.28
2023-02-27T01:27:58.722Z,-2.28
2023-02-27T01:30:25.753Z,-2.27
2023-02-27T01:32:52.891Z,-2.27
2023-02-27T01:35:19.872Z,-2.25
2023-02-27T01:37:48.795Z,-2.25
2023-02-27T01:40:16.259Z,-2.23
2023-02-27T01:42:43.304Z,-2.24
2023-02-27T01:45:13.403Z,-2.20
2023-02-27T01:47:42.371Z,-2.21
2023-02-27T01:50:09.877Z,-2.22
2023-02-27T01:52:37.823Z,-2.19
2023-02-27T01:55:08.698Z,-2.18
2023-02-27T01:57:36.462Z,-2.15
2023-02-27T02:00:05.592Z,-2.12
2023-02-27T02:02:42.564Z,-2.08
2023-02-27T02:05:10.091Z,-2.06
2023-02-27T02:07:38.790Z,-2.05
2023-02-27T02:10:06.553Z,-2.02
2023-02-27T02:12:35.420Z,-2.01
2023-02-27T02:15:02.907Z,-2.01
2023-02-27T02:17:40.367Z,-1.99
2023-02-27T02:20:22.364Z,-1.99
2023-02-27T02:23:15.589Z,-1.99
2023-02-27T02:25:45.746Z,-1.99
2023-02-27T02:28:12.726Z,-1.99
2023-02-27T02:30:42.599Z,-1.98
2023-02-27T02:33:32.370Z,-2.00
2023-02-27T02:36:08.311Z,-1.99
2023-02-27T02:39:01.449Z,-2.01
2023-02-27T02:41:34.169Z,-2.02
2023-02-27T02:44:03.900Z,-2.05
2023-02-27T02:46:30.858Z,-2.05
2023-02-27T02:49:06.372Z,-2.06
2023-02-27T02:51:40.104Z,-2.06
2023-02-27T02:54:07.415Z,-2.08
2023-02-27T02:56:44.381Z,-2.10
2023-02-27T02:59:27.916Z,-2.14
2023-02-27T03:02:01.848Z,-2.21
2023-02-27T03:04:32.410Z,-2.26
2023-02-27T03:07:04.303Z,-2.32
2023-02-27T03:09:40.643Z,-2.35
2023-02-27T03:12:10.454Z,-2.40
2023-02-27T03:14:40.945Z,-2.44
2023-02-27T03:17:10.877Z,-2.46
2023-02-27T03:19:41.961Z,-2.48
2023-02-27T03:22:11.196Z,-2.48
2023-02-27T03:24:47.323Z,-2.51
2023-02-27T03:27:16.733Z,-2.52
2023-02-27T03:29:58.551Z,-2.53
2023-02-27T03:32:26.212Z,-2.54
2023-02-27T03:34:53.293Z,-2.54
2023-02-27T03:37:26.595Z,-2.53
2023-02-27T03:39:59.823Z,-2.53
2023-02-27T03:42:30.601Z,-2.55
2023-02-27T03:45:19.977Z,-2.56
2023-02-27T03:47:47.395Z,-2.55
2023-02-27T03:50:15.395Z,-2.54
2023-02-27T03:52:43.235Z,-2.52
2023-02-27T03:55:13.886Z,-2.46
2023-02-27T03:57:41.305Z,-2.44
2023-02-27T04:00:12.194Z,-2.42
2023-02-27T04:02:44.532Z,-2.43
2023-02-27T04:05:13.864Z,-2.42
2023-02-27T04:07:53.479Z,-2.41
2023-02-27T04:10:31.116Z,-2.41
2023-02-27T04:13:15.140Z,-2.39
2023-02-27T04:15:50.969Z,-2.40
2023-02-27T04:18:23.815Z,-2.38
2023-02-27T04:20:53.653Z,-2.39
2023-02-27T04:23:27.176Z,-2.38
2023-02-27T04:26:14.946Z,-2.36
2023-02-27T04:28:50.789Z,-2.36
2023-02-27T04:31:25.212Z,-2.37
2023-02-27T04:33:56.080Z,-2.38
2023-02-27T04:36:36.599Z,-2.42
2023-02-27T04:39:03.815Z,-2.44
2023-02-27T04:41:43.667Z,-2.47
2023-02-27T04:44:12.174Z,-2.51
2023-02-27T04:46:42.250Z,-2.55
2023-02-27T04:49:15.946Z,-2.58
2023-02-27T04:52:02.915Z,-2.60
2023-02-27T04:54:44.182Z,-2.62
2023-02-27T04:57:13.176Z,-2.63
2023-02-27T04:59:44.056Z,-2.65
2023-02-27T05:02:17.262Z,-2.68
2023-02-27T05:04:46.098Z,-2.68
2023-02-27T05:07:16.340Z,-2.70
2023-02-27T05:09:59.207Z,-2.70
2023-02-27T05:12:29.315Z,-2.70
2023-02-27T05:14:59.290Z,-2.70
2023-02-27T05:17:29.889Z,-2.69
2023-02-27T05:19:57.223Z,-2.71
2023-02-27T05:22:42.493Z,-2.72
2023-02-27T05:25:14.400Z,-2.71
2023-02-27T05:28:05.389Z,-2.72
2023-02-27T05:30:32.480Z,-2.74
2023-02-27T05:33:05.099Z,-2.76
2023-02-27T05:35:34.571Z,-2.75
2023-02-27T05:38:07.282Z,-2.76
2023-02-27T05:40:36.941Z,-2.76
2023-02-27T05:43:13.417Z,-2.76
2023-02-27T05:45:41.323Z,-2.76
2023-02-27T05:48:11.369Z,-2.74
2023-02-27T05:50:38.948Z,-2.77
2023-02-27T05:53:08.661Z,-2.77
2023-02-27T05:55:41.557Z,-2.78
2023-02-27T05:58:08.531Z,-2.76
2023-02-27T06:00:38.607Z,-2.76
2023-02-27T06:03:06.129Z,-2.76
2023-02-27T06:05:33.501Z,-2.75
2023-02-27T06:08:01.107Z,-2.73
2023-02-27T06:10:28.480Z,-2.73
2023-02-27T06:12:55.442Z,-2.69
2023-02-27T06:15:23.521Z,-2.67
2023-02-27T06:17:50.549Z,-2.63
2023-02-27T06:20:17.845Z,-2.59
2023-02-27T06:22:44.792Z,-2.55
2023-02-27T06:25:11.864Z,-2.51
2023-02-27T06:27:39.312Z,-2.46
2023-02-27T06:30:07.691Z,-2.39
2023-02-27T06:32:34.809Z,-2.31
2023-02-27T06:35:02.101Z,-2.23
2023-02-27T06:37:29.011Z,-2.15
2023-02-27T06:39:56.011Z,-2.04
2023-02-27T06:42:23.395Z,-1.89
2023-02-27T06:44:50.424Z,-1.73
2023-02-27T06:47:17.610Z,-1.63
2023-02-27T06:49:44.809Z,-1.54
2023-02-27T06:52:11.910Z,-1.46
2023-02-27T06:54:38.857Z,-1.39
2023-02-27T06:57:05.925Z,-1.31
2023-02-27T06:59:32.976Z,-1.25
2023-02-27T07:02:00.864Z,-1.19
2023-02-27T07:04:27.908Z,-1.12
2023-02-27T07:07:33.798Z,-1.05
2023-02-27T07:09:42.147Z,-0.99
2023-02-27T07:12:09.368Z,-0.99
2023-02-27T07:14:36.514Z,-0.92
2023-02-27T07:17:06.402Z,-0.89
2023-02-27T07:19:36.170Z,-0.95
2023-02-27T07:22:03.870Z,-0.92
2023-02-27T07:24:30.946Z,-0.90
2023-02-27T07:26:58.005Z,-0.93
2023-02-27T07:29:24.949Z,-0.89
2023-02-27T07:31:51.928Z,-0.88
2023-02-27T07:34:18.946Z,-0.81
2023-02-27T07:36:46.068Z,-0.74
2023-02-27T07:39:13.420Z,-0.73
2023-02-27T07:41:40.414Z,-0.65
2023-02-27T07:44:08.891Z,-0.61
2023-02-27T07:46:36.265Z,-0.56
2023-02-27T07:49:03.318Z,-0.50
2023-02-27T07:51:30.443Z,-0.47
2023-02-27T07:53:58.535Z,-0.31
2023-02-27T07:56:28.970Z,-0.26
2023-02-27T07:58:56.261Z,-0.08
2023-02-27T08:01:23.389Z,0.15
2023-02-27T08:03:50.414Z,0.49
2023-02-27T08:06:17.400Z,0.62
2023-02-27T08:08:44.452Z,0.65
2023-02-27T08:11:11.710Z,0.57
2023-02-27T08:16:26.357Z,0.80
2023-02-27T08:18:53.901Z,0.70
2023-02-27T08:21:21.004Z,0.63
2023-02-27T08:23:48.191Z,0.48
2023-02-27T08:26:15.442Z,0.42
2023-02-27T08:28:43.044Z,0.29
2023-02-27T08:31:10.147Z,-0.05
2023-02-27T08:33:37.104Z,-0.08
2023-02-27T08:36:04.202Z,-0.01
2023-02-27T08:38:31.175Z,-0.03
2023-02-27T08:40:58.159Z,-0.08
2023-02-27T08:43:25.471Z,0.02
2023-02-27T08:45:53.030Z,0.08
2023-02-27T08:48:20.031Z,0.11
2023-02-27T08:50:47.192Z,0.19
2023-02-27T08:53:14.143Z,0.37
2023-02-27T08:55:41.257Z,0.45
2023-02-27T08:58:08.616Z,0.46
2023-02-27T09:00:35.919Z,0.50
2023-02-27T09:03:03.011Z,0.57
2023-02-27T09:05:30.180Z,0.74
2023-02-27T09:07:57.176Z,0.80
2023-02-27T09:10:24.365Z,0.78
2023-02-27T09:12:51.375Z,0.74
2023-02-27T09:15:18.450Z,0.87
2023-02-27T09:17:45.741Z,0.90
2023-02-27T09:20:13.123Z,0.84
2023-02-27T09:22:40.250Z,0.83
2023-02-27T09:25:07.426Z,0.93
2023-02-27T09:27:34.796Z,0.82
2023-02-27T09:30:01.901Z,0.81
2023-02-27T09:32:29.148Z,0.57
2023-02-27T09:34:56.250Z,0.51
2023-02-27T09:37:25.246Z,0.45
2023-02-27T09:39:52.415Z,0.36
2023-02-27T09:42:19.743Z,0.08
2023-02-27T09:44:48.145Z,-0.07
2023-02-27T09:47:17.913Z,-0.21
2023-02-27T09:50:08.009Z,-0.31
2023-02-27T09:52:36.915Z,-0.41
2023-02-27T09:55:14.568Z,-0.47
2023-02-27T09:57:45.970Z,-0.49
2023-02-27T10:00:20.505Z,-0.45
2023-02-27T10:02:53.498Z,-0.42
2023-02-27T10:05:20.582Z,-0.42
2023-02-27T10:08:19.845Z,-0.40
2023-02-27T10:10:49.614Z,-0.43
2023-02-27T10:13:31.649Z,-0.39
2023-02-27T10:16:00.220Z,-0.35
2023-02-27T10:18:30.929Z,-0.24
2023-02-27T10:21:03.167Z,-0.24
2023-02-27T10:23:39.631Z,-0.22
2023-02-27T10:26:08.487Z,-0.25
2023-02-27T10:28:35.522Z,-0.22
2023-02-27T10:31:02.889Z,-0.20
2023-02-27T10:33:35.934Z,-0.06
2023-02-27T10:36:03.780Z,0.16
2023-02-27T10:38:39.763Z,0.37
2023-02-27T10:41:08.518Z,0.64
2023-02-27T10:43:35.619Z,0.77
2023-02-27T10:46:03.760Z,0.89
2023-02-27T10:48:32.480Z,1.14
2023-02-27T10:51:18.230Z,1.19
2023-02-27T10:53:45.187Z,1.21
2023-02-27T10:56:15.835Z,1.33
2023-02-27T10:58:42.795Z,1.43
2023-02-27T11:01:11.307Z,1.40
2023-02-27T11:03:42.780Z,1.38
2023-02-27T11:06:09.756Z,1.36
2023-02-27T11:08:36.828Z,1.31
2023-02-27T11:11:09.910Z,1.49
2023-02-27T11:13:38.755Z,1.45
2023-02-27T11:16:08.353Z,1.35
2023-02-27T11:18:36.575Z,1.38
2023-02-27T11:21:12.203Z,1.45
2023-02-27T11:23:49.336Z,1.58
2023-02-27T11:26:17.788Z,1.60
2023-02-27T11:28:44.890Z,1.59
2023-02-27T11:31:21.699Z,1.42
2023-02-27T11:33:53.805Z,1.48
2023-02-27T11:36:23.944Z,1.28
2023-02-27T11:38:53.369Z,1.38
2023-02-27T11:41:22.674Z,1.46
2023-02-27T11:43:52.359Z,1.42
2023-02-27T11:46:46.688Z,1.43
2023-02-27T11:49:14.777Z,1.44
2023-02-27T11:51:57.146Z,1.40
2023-02-27T11:54:42.794Z,1.25
2023-02-27T11:57:18.915Z,1.24
2023-02-27T11:59:51.110Z,1.20
2023-02-27T12:02:23.924Z,1.16
2023-02-27T12:04:50.986Z,1.01
2023-02-27T12:07:21.307Z,0.90
2023-02-27T12:09:48.309Z,0.96
2023-02-27T12:12:24.927Z,1.08
2023-02-27T12:15:10.686Z,1.20
2023-02-27T12:17:45.384Z,1.34
2023-02-27T12:20:12.930Z,1.26
2023-02-27T12:22:46.098Z,1.18
2023-02-27T12:25:33.821Z,1.31
2023-02-27T12:28:12.277Z,1.27
2023-02-27T12:30:42.773Z,1.23
2023-02-27T12:33:25.612Z,1.27
2023-02-27T12:35:58.856Z,1.27
2023-02-27T12:38:26.073Z,1.28
2023-02-27T12:41:16.473Z,1.25
2023-02-27T12:43:54.786Z,1.13
2023-02-27T12:46:38.814Z,1.23
2023-02-27T12:49:09.497Z,1.29
2023-02-27T12:51:43.468Z,1.27
2023-02-27T12:54:16.327Z,1.38
2023-02-27T12:56:51.464Z,1.35
2023-02-27T12:59:27.814Z,1.51
2023-02-27T13:02:04.638Z,1.59
2023-02-27T13:04:31.586Z,1.50
2023-02-27T13:07:02.668Z,1.48
2023-02-27T13:09:32.374Z,1.32
2023-02-27T13:11:59.432Z,1.37
2023-02-27T13:14:45.043Z,1.30
2023-02-27T13:17:25.835Z,1.27
2023-02-27T13:20:00.713Z,1.30
2023-02-27T13:22:41.545Z,1.20
2023-02-27T13:25:14.650Z,1.21
2023-02-27T13:28:03.012Z,1.19
2023-02-27T13:30:41.174Z,1.20
2023-02-27T13:33:14.321Z,1.24
2023-02-27T13:35:59.914Z,1.14
2023-02-27T13:38:46.371Z,1.08
2023-02-27T13:41:25.351Z,1.18
2023-02-27T13:43:56.774Z,1.29
2023-02-27T13:46:23.883Z,1.20
2023-02-27T13:48:54.995Z,1.24
2023-02-27T13:51:40.459Z,1.16
2023-02-27T13:54:13.443Z,1.41
2023-02-27T13:56:43.343Z,1.36
2023-02-27T13:59:26.754Z,1.45
2023-02-27T14:01:55.386Z,1.45
2023-02-27T14:04:25.727Z,1.51
2023-02-27T14:06:58.949Z,1.53
2023-02-27T14:09:26.506Z,1.36
2023-02-27T14:11:55.733Z,1.03
2023-02-27T14:14:41.657Z,0.63
2023-02-27T14:17:10.903Z,0.55
2023-02-27T14:19:40.834Z,0.52
2023-02-27T14:22:16.861Z,0.67
2023-02-27T14:25:02.545Z,0.75
2023-02-27T14:27:39.358Z,0.79
2023-02-27T14:30:22.375Z,0.67
2023-02-27T14:32:55.095Z,0.70
2023-02-27T14:35:22.185Z,0.52
2023-02-27T14:37:50.280Z,0.44
2023-02-27T14:40:29.922Z,0.45
2023-02-27T14:43:00.311Z,0.41
2023-02-27T14:45:29.048Z,0.54
2023-02-27T14:47:57.130Z,0.55
2023-02-27T14:50:24.120Z,0.64
2023-02-27T14:52:51.267Z,0.48
2023-02-27T14:55:20.400Z,0.49
2023-02-27T14:57:56.441Z,0.54
2023-02-27T15:00:50.945Z,0.49
2023-02-27T15:03:20.399Z,0.42
2023-02-27T15:05:48.999Z,0.37
2023-02-27T15:08:36.336Z,0.34
2023-02-27T15:11:03.385Z,0.45
2023-02-27T15:13:40.028Z,0.41
2023-02-27T15:16:25.417Z,0.19
2023-02-27T15:18:54.198Z,0.18
2023-02-27T15:21:22.335Z,0.24
2023-02-27T15:24:00.968Z,0.22
2023-02-27T15:26:30.415Z,0.19
2023-02-27T15:29:00.150Z,0.21
2023-02-27T15:31:30.323Z,0.21
2023-02-27T15:33:58.484Z,0.23
2023-02-27T15:36:27.774Z,0.19
2023-02-27T15:39:03.952Z,0.17
2023-02-27T15:41:31.066Z,0.18
2023-02-27T15:43:58.246Z,0.11
2023-02-27T15:46:25.939Z,0.03
2023-02-27T15:48:55.009Z,-0.03
2023-02-27T15:51:22.004Z,-0.03
2023-02-27T15:53:50.138Z,-0.02
2023-02-27T15:56:18.456Z,-0.05
2023-02-27T15:58:51.017Z,-0.03
2023-02-27T16:01:19.689Z,-0.02
2023-02-27T16:03:50.941Z,0.01
2023-02-27T16:06:19.791Z,-0.01
2023-02-27T16:08:48.604Z,-0.02
2023-02-27T16:11:23.089Z,-0.03
2023-02-27T16:13:50.603Z,-0.07
2023-02-27T16:16:20.247Z,-0.13
2023-02-27T16:18:48.783Z,-0.15
2023-02-27T16:21:20.194Z,-0.29
2023-02-27T16:23:47.446Z,-0.29
2023-02-27T16:26:23.146Z,-0.33
2023-02-27T16:28:54.770Z,-0.35
2023-02-27T16:31:38.587Z,-0.39
2023-02-27T16:34:16.591Z,-0.47
2023-02-27T16:36:52.407Z,-0.50
2023-02-27T16:39:19.469Z,-0.60
2023-02-27T16:41:46.454Z,-0.63
2023-02-27T16:44:13.435Z,-0.65
2023-02-27T16:46:40.344Z,-0.68
2023-02-27T16:49:20.140Z,-0.71
2023-02-27T16:51:47.288Z,-0.77
2023-02-27T16:54:15.747Z,-0.76
2023-02-27T16:56:44.609Z,-0.74
2023-02-27T16:59:24.220Z,-0.73
2023-02-27T17:01:51.128Z,-0.74
2023-02-27T17:04:25.588Z,-0.71
2023-02-27T17:06:53.458Z,-0.70
2023-02-27T17:09:20.921Z,-0.69
2023-02-27T17:11:57.477Z,-0.71
2023-02-27T17:14:24.802Z,-0.73
2023-02-27T17:16:51.850Z,-0.76
2023-02-27T17:19:21.799Z,-0.86
2023-02-27T17:21:49.280Z,-0.85
2023-02-27T17:24:16.462Z,-0.86
2023-02-27T17:26:43.496Z,-0.88
2023-02-27T17:29:10.531Z,-0.90
2023-02-27T17:31:37.876Z,-0.91
2023-02-27T17:34:05.781Z,-0.95
2023-02-27T17:36:32.783Z,-0.94
2023-02-27T17:39:03.262Z,-0.97
2023-02-27T17:41:31.184Z,-1.02
2023-02-27T17:43:59.056Z,-1.04
2023-02-27T17:46:27.586Z,-1.06
2023-02-27T17:48:56.775Z,-1.11
2023-02-27T17:51:23.742Z,-1.15
2023-02-27T17:53:50.818Z,-1.18
2023-02-27T17:56:17.930Z,-1.18
2023-02-27T17:58:47.902Z,-1.17
2023-02-27T18:01:17.248Z,-1.18
2023-02-27T18:03:47.245Z,-1.17
2023-02-27T18:06:14.937Z,-1.22
2023-02-27T18:08:42.009Z,-1.28
2023-02-27T18:11:11.098Z,-1.25
2023-02-27T18:13:38.172Z,-1.25
2023-02-27T18:16:05.336Z,-1.26
2023-02-27T18:18:32.482Z,-1.25
2023-02-27T18:21:00.405Z,-1.31
2023-02-27T18:23:27.477Z,-1.28
2023-02-27T18:25:58.306Z,-1.30
2023-02-27T18:28:25.724Z,-1.34
2023-02-27T18:30:52.824Z,-1.32
2023-02-27T18:33:19.980Z,-1.36
2023-02-27T18:35:47.428Z,-1.36
2023-02-27T18:38:14.929Z,-1.37
2023-02-27T18:40:43.161Z,-1.39
2023-02-27T18:43:10.837Z,-1.45
2023-02-27T18:45:38.323Z,-1.50
2023-02-27T18:48:05.536Z,-1.61
2023-02-27T18:50:32.595Z,-1.68
2023-02-27T18:53:00.521Z,-1.71
2023-02-27T18:55:27.564Z,-1.72
2023-02-27T18:57:54.539Z,-1.74
2023-02-27T19:00:24.643Z,-1.72
2023-02-27T19:02:51.774Z,-1.78
2023-02-27T19:05:20.441Z,-1.77
2023-02-27T19:07:47.437Z,-1.81
2023-02-27T19:10:15.458Z,-1.85
2023-02-27T19:12:42.841Z,-1.86
2023-02-27T19:15:10.914Z,-1.86
2023-02-27T19:17:37.995Z,-1.87
2023-02-27T19:20:07.060Z,-1.88
2023-02-27T19:22:34.749Z,-1.87
2023-02-27T19:25:01.925Z,-1.88
2023-02-27T19:27:28.995Z,-1.86
2023-02-27T19:29:56.037Z,-1.88
2023-02-27T19:32:23.240Z,-1.87
2023-02-27T19:34:50.319Z,-1.85
2023-02-27T19:37:17.642Z,-1.85
2023-02-27T19:39:44.785Z,-1.85
2023-02-27T19:42:11.776Z,-1.85
2023-02-27T19:44:40.306Z,-1.84
2023-02-27T19:47:07.360Z,-1.82
2023-02-27T19:49:34.547Z,-1.80
2023-02-27T19:52:03.167Z,-1.79
2023-02-27T19:54:30.874Z,-1.80
2023-02-27T19:56:57.797Z,-1.79
2023-02-27T19:59:25.200Z,-1.81
2023-02-27T20:01:52.538Z,-1.78
2023-02-27T20:04:19.634Z,-1.78
2023-02-27T20:06:47.678Z,-1.76
2023-02-27T20:09:16.116Z,-1.73
2023-02-27T20:11:43.822Z,-1.72
2023-02-27T20:14:12.012Z,-1.72
2023-02-27T20:16:40.198Z,-1.73
2023-02-27T20:19:10.394Z,-1.72
2023-02-27T20:21:37.800Z,-1.72
2023-02-27T20:24:04.940Z,-1.69
2023-02-27T20:26:36.343Z,-1.73
2023-02-27T20:29:14.018Z,-1.73
2023-02-27T20:31:42.662Z,-1.71
2023-02-27T20:34:11.985Z,-1.77
2023-02-27T20:36:39.885Z,-1.76
2023-02-27T20:39:07.287Z,-1.78
2023-02-27T20:41:35.001Z,-1.76
2023-02-27T20:44:02.694Z,-1.76
2023-02-27T20:46:30.066Z,-1.85
2023-02-27T20:48:58.369Z,-1.81
2023-02-27T20:51:26.655Z,-1.81
2023-02-27T20:53:55.589Z,-1.78
2023-02-27T20:56:23.500Z,-1.83
2023-02-27T20:58:50.513Z,-1.82
2023-02-27T21:01:17.889Z,-1.85
2023-02-27T21:03:45.790Z,-1.83
2023-02-27T21:06:14.500Z,-1.81
2023-02-27T21:08:42.783Z,-1.81
2023-02-27T21:11:10.660Z,-1.83
2023-02-27T21:13:38.224Z,-1.82
2023-02-27T21:16:06.522Z,-1.86
2023-02-27T21:18:33.742Z,-1.88
2023-02-27T21:21:08.984Z,-1.92
2023-02-27T21:23:41.619Z,-1.92
2023-02-27T21:26:09.629Z,-1.94
2023-02-27T21:28:42.617Z,-1.95
2023-02-27T21:31:09.607Z,-1.96
2023-02-27T21:33:36.549Z,-1.96
2023-02-27T21:36:03.625Z,-1.99
2023-02-27T21:38:31.310Z,-2.00
2023-02-27T21:40:58.689Z,-2.01
2023-02-27T21:43:25.596Z,-2.04
2023-02-27T21:45:52.560Z,-2.07
2023-02-27T21:48:19.585Z,-2.11
2023-02-27T21:50:46.671Z,-2.16
2023-02-27T21:53:13.665Z,-2.20
2023-02-27T21:55:40.677Z,-2.23
2023-02-27T21:58:10.645Z,-2.30
2023-02-27T22:00:37.987Z,-2.33
2023-02-27T22:03:05.103Z,-2.36
2023-02-27T22:05:32.147Z,-2.38
2023-02-27T22:07:59.138Z,-2.38
2023-02-27T22:10:26.096Z,-2.38
2023-02-27T22:12:53.018Z,-2.37
2023-02-27T22:15:20.137Z,-2.34
2023-02-27T22:17:47.106Z,-2.30
2023-02-27T22:20:14.106Z,-2.27
2023-02-27T22:22:40.935Z,-2.24
2023-02-27T22:25:08.095Z,-2.20
2023-02-27T22:27:35.096Z,-2.17
2023-02-27T22:30:02.250Z,-2.16
2023-02-27T22:32:29.324Z,-2.13
2023-02-27T22:34:58.547Z,-2.14
2023-02-27T22:37:25.488Z,-2.17
2023-02-27T22:39:52.414Z,-2.19
2023-02-27T22:42:19.476Z,-2.25
2023-02-27T22:44:46.436Z,-2.32
2023-02-27T22:47:13.529Z,-2.37
2023-02-27T22:49:40.526Z,-2.40
2023-02-27T22:52:07.934Z,-2.45
2023-02-27T22:54:34.979Z,-2.48
2023-02-27T22:57:02.035Z,-2.50
2023-02-27T22:59:28.946Z,-2.54
2023-02-27T23:01:56.224Z,-2.56
2023-02-27T23:04:23.378Z,-2.57
2023-02-27T23:06:52.693Z,-2.59
2023-02-27T23:09:21.384Z,-2.61
2023-02-27T23:11:48.468Z,-2.62
2023-02-27T23:14:15.597Z,-2.64
2023-02-27T23:16:47.071Z,-2.67
2023-02-27T23:19:15.424Z,-2.68
2023-02-27T23:21:42.769Z,-2.69
2023-02-27T23:24:12.997Z,-2.69
2023-02-27T23:26:41.806Z,-2.72
2023-02-27T23:29:09.357Z,-2.72
2023-02-27T23:31:37.028Z,-2.74
2023-02-27T23:34:07.872Z,-2.74
2023-02-27T23:36:35.674Z,-2.74
2023-02-27T23:39:03.396Z,-2.74
2023-02-27T23:41:30.601Z,-2.76
2023-02-27T23:44:16.031Z,-2.77
2023-02-27T23:46:42.974Z,-2.78
2023-02-27T23:49:10.604Z,-2.80
2023-02-27T23:51:37.709Z,-2.82
2023-02-27T23:54:04.596Z,-2.87
2023-02-27T23:56:31.530Z,-2.89
2023-02-27T23:59:00.116Z,-2.91
